Time;durP1;ratioP1;P1;durP2;ratioP2;P2;SDS_P1;SDS_P2;PMS_P1;PMS_P2;Temp;Humidity;BMP_temperature;BMP_pressure;BME280_temperature;BME280_humidity;BME280_pressure;Samples;Min_cycle;Max_cycle;Signal;HPM_P1;HPM_P2
2021/09/30 00:00:18;;;;;;;2.95;1.50;;;9.00;99.90;;;;;;5073997;28;20662;-67
2021/09/30 00:02:44;;;;;;;2.08;1.58;;;8.90;99.90;;;;;;5073935;28;20216;-67
2021/09/30 00:05:11;;;;;;;2.03;1.33;;;8.80;99.90;;;;;;5074172;28;20651;-67
2021/09/30 00:07:37;;;;;;;3.08;1.50;;;8.80;99.90;;;;;;5074020;28;20246;-67
2021/09/30 00:10:07;;;;;;;1.75;1.30;;;8.70;99.90;;;;;;5073476;28;20533;-67
2021/09/30 00:12:38;;;;;;;5.63;1.55;;;8.70;99.90;;;;;;5073930;28;20192;-67
2021/09/30 00:15:11;;;;;;;2.08;1.52;;;8.70;99.90;;;;;;5073618;28;20208;-67
2021/09/30 00:34:22;;;;;;;4.13;1.23;;;8.50;99.90;;;;;;5073718;28;20181;-67
2021/09/30 00:42:09;;;;;;;5.13;1.80;;;8.30;99.90;;;;;;5073811;28;20532;-67
2021/09/30 00:50:09;;;;;;;3.70;1.70;;;8.10;99.90;;;;;;5073702;28;20635;-68
2021/09/30 01:46:11;;;;;;;2.17;1.73;;;7.50;99.90;;;;;;5076744;28;20180;-69
2021/09/30 03:00:27;;;;;;;4.43;2.65;;;7.10;99.90;;;;;;5075278;28;20176;-68
2021/09/30 03:02:56;;;;;;;4.30;2.58;;;7.10;99.90;;;;;;5074969;28;20628;-68
2021/09/30 03:05:24;;;;;;;3.20;2.90;;;7.10;99.90;;;;;;5075025;28;20215;-68
2021/09/30 03:07:53;;;;;;;3.38;2.95;;;7.00;99.90;;;;;;5073377;28;20204;-68
2021/09/30 03:10:21;;;;;;;4.32;3.15;;;7.00;99.90;;;;;;5074515;28;20198;-68
2021/09/30 03:12:49;;;;;;;4.18;2.95;;;7.00;99.90;;;;;;5074103;28;20223;-68
2021/09/30 03:18:11;;;;;;;2.95;2.75;;;7.00;99.90;;;;;;5074563;28;20231;-68
2021/09/30 03:20:50;;;;;;;5.82;3.47;;;6.90;99.90;;;;;;5074838;28;20207;-68
2021/09/30 03:23:21;;;;;;;6.10;2.30;;;6.90;99.90;;;;;;5074562;28;20254;-68
2021/09/30 03:25:49;;;;;;;3.35;3.05;;;6.90;99.90;;;;;;5074340;28;20663;-67
2021/09/30 03:28:21;;;;;;;2.75;2.35;;;6.90;99.90;;;;;;5074472;28;20217;-68
2021/09/30 03:30:48;;;;;;;5.20;2.40;;;6.90;99.90;;;;;;5074572;28;20199;-68
2021/09/30 03:33:15;;;;;;;5.63;2.83;;;6.90;99.90;;;;;;5074587;28;20643;-68
2021/09/30 03:35:42;;;;;;;6.40;2.92;;;6.90;99.90;;;;;;5074093;28;20192;-68
2021/09/30 03:38:10;;;;;;;4.63;2.92;;;6.80;99.90;;;;;;5074293;28;20196;-68
2021/09/30 03:40:38;;;;;;;4.75;3.65;;;6.80;99.90;;;;;;5072702;28;20204;-68
2021/09/30 03:43:05;;;;;;;6.68;2.90;;;6.80;99.90;;;;;;5073760;28;20204;-68
2021/09/30 03:45:32;;;;;;;7.60;3.17;;;6.70;99.90;;;;;;5072932;28;20204;-68
2021/09/30 03:47:59;;;;;;;3.38;2.90;;;6.70;99.90;;;;;;5074596;28;20212;-68
2021/09/30 03:50:32;;;;;;;3.80;2.60;;;6.70;99.90;;;;;;5073947;28;20199;-67
2021/09/30 03:53:08;;;;;;;4.57;2.60;;;6.70;99.90;;;;;;5073782;28;20204;-68
2021/09/30 03:56:02;;;;;;;7.80;2.85;;;6.70;99.90;;;;;;5073849;28;20196;-67
2021/09/30 04:01:15;;;;;;;2.80;2.60;;;6.70;99.90;;;;;;5075100;28;20191;-67
2021/09/30 04:03:42;;;;;;;6.07;2.90;;;6.70;99.90;;;;;;5074605;28;20675;-67
2021/09/30 04:06:08;;;;;;;2.95;2.40;;;6.70;99.90;;;;;;5074111;28;20261;-67
2021/09/30 04:08:35;;;;;;;8.88;3.33;;;6.60;99.90;;;;;;5074025;28;20207;-67
2021/09/30 04:11:02;;;;;;;4.55;2.80;;;6.60;99.90;;;;;;5073827;28;20206;-67
2021/09/30 04:13:28;;;;;;;9.48;3.33;;;6.60;99.90;;;;;;5073969;28;20203;-67
2021/09/30 04:15:55;;;;;;;12.48;2.97;;;6.50;99.90;;;;;;5074091;28;20188;-67
2021/09/30 04:18:21;;;;;;;3.70;2.70;;;6.50;99.90;;;;;;5074035;28;20223;-68
2021/09/30 04:20:48;;;;;;;4.50;2.85;;;6.50;99.90;;;;;;5074575;28;20589;-67
2021/09/30 04:23:15;;;;;;;4.20;2.80;;;6.50;99.90;;;;;;5074185;28;20192;-67
2021/09/30 04:25:41;;;;;;;3.00;2.67;;;6.50;99.90;;;;;;5075176;28;20200;-67
2021/09/30 04:28:08;;;;;;;3.05;2.60;;;6.50;99.90;;;;;;5075060;28;20204;-67
2021/09/30 04:30:34;;;;;;;5.35;3.03;;;6.50;99.90;;;;;;5074760;28;20207;-67
2021/09/30 04:33:00;;;;;;;4.82;3.28;;;6.40;99.90;;;;;;5076254;28;20214;-67
2021/09/30 04:35:27;;;;;;;4.45;3.40;;;6.40;99.90;;;;;;5074271;28;20210;-67
2021/09/30 04:37:53;;;;;;;4.00;2.97;;;6.40;99.90;;;;;;5073244;28;20199;-67
2021/09/30 04:40:19;;;;;;;5.22;3.00;;;6.40;99.90;;;;;;5074752;28;20203;-67
2021/09/30 04:42:46;;;;;;;7.65;4.38;;;6.40;99.90;;;;;;5073991;28;20667;-67
2021/09/30 04:45:12;;;;;;;4.53;3.03;;;6.40;99.90;;;;;;5074895;28;20234;-67
2021/09/30 04:47:38;;;;;;;6.50;4.05;;;6.40;99.90;;;;;;5075215;28;20243;-67
2021/09/30 04:50:05;;;;;;;6.38;3.55;;;6.30;99.90;;;;;;5074208;28;20203;-68
2021/09/30 04:52:32;;;;;;;7.05;3.50;;;6.30;99.90;;;;;;5074058;28;20196;-67
2021/09/30 04:54:58;;;;;;;5.05;3.70;;;6.30;99.90;;;;;;5073802;28;20200;-67
2021/09/30 04:57:24;;;;;;;7.90;3.45;;;6.20;99.90;;;;;;5073892;28;20196;-67
2021/09/30 04:59:51;;;;;;;7.40;2.63;;;6.20;99.90;;;;;;5074199;28;20566;-67
2021/09/30 05:02:17;;;;;;;3.90;3.47;;;6.10;99.90;;;;;;5074814;28;20199;-67
2021/09/30 05:04:43;;;;;;;3.45;3.25;;;6.10;99.90;;;;;;5078859;28;20219;-67
2021/09/30 05:07:09;;;;;;;4.68;3.22;;;6.00;99.90;;;;;;5078094;28;20341;-67
2021/09/30 05:09:36;;;;;;;7.25;3.80;;;6.00;99.90;;;;;;5079407;28;20557;-67
2021/09/30 05:12:04;;;;;;;4.13;3.15;;;6.00;99.90;;;;;;5078802;28;20203;-67
2021/09/30 05:14:30;;;;;;;7.80;3.55;;;6.00;99.90;;;;;;5079023;28;20196;-67
2021/09/30 05:16:57;;;;;;;5.28;3.83;;;6.00;99.90;;;;;;5077666;28;20586;-67
2021/09/30 05:19:23;;;;;;;4.78;3.50;;;6.00;99.90;;;;;;5079724;28;20655;-67
2021/09/30 05:21:50;;;;;;;3.60;3.40;;;6.00;99.90;;;;;;5079512;28;20215;-67
2021/09/30 05:24:17;;;;;;;7.78;3.75;;;6.00;99.90;;;;;;5078623;28;20239;-67
2021/09/30 05:26:43;;;;;;;3.65;3.35;;;6.10;99.90;;;;;;5080255;28;20196;-67
2021/09/30 05:29:09;;;;;;;6.32;3.97;;;6.00;99.90;;;;;;5080649;28;20229;-67
2021/09/30 05:31:37;;;;;;;3.83;3.53;;;6.10;99.90;;;;;;5080253;28;20192;-67
2021/09/30 05:34:04;;;;;;;6.85;4.03;;;6.00;99.90;;;;;;5079785;28;20211;-67
2021/09/30 05:36:30;;;;;;;4.40;4.00;;;6.00;99.90;;;;;;5079283;28;20583;-67
2021/09/30 05:38:56;;;;;;;3.92;3.53;;;6.00;99.90;;;;;;5079826;28;20597;-67
2021/09/30 05:41:24;;;;;;;6.25;4.05;;;6.10;99.90;;;;;;5080832;28;20686;-67
2021/09/30 05:43:54;;;;;;;6.40;3.40;;;6.10;99.90;;;;;;5079611;28;20228;-67
2021/09/30 05:46:33;;;;;;;5.60;3.72;;;6.10;99.90;;;;;;5078489;28;20208;-68
2021/09/30 05:49:00;;;;;;;5.97;3.58;;;6.10;99.90;;;;;;5076640;28;20246;-67
2021/09/30 05:51:26;;;;;;;4.20;3.55;;;6.20;99.90;;;;;;5078687;28;20188;-68
2021/09/30 05:53:53;;;;;;;3.60;3.30;;;6.20;99.90;;;;;;5083344;28;20218;-68
2021/09/30 05:56:19;;;;;;;5.45;3.65;;;6.10;99.90;;;;;;5079971;28;20224;-68
2021/09/30 05:58:45;;;;;;;5.30;3.45;;;6.10;99.90;;;;;;5082273;28;20200;-68
2021/09/30 06:01:33;;;;;;;8.90;4.10;;;6.20;99.90;;;;;;5080047;28;20195;-68
2021/09/30 06:04:57;;;;;;;6.70;3.85;;;6.20;99.90;;;;;;5078715;28;20588;-68
2021/09/30 06:14:46;;;;;;;5.22;4.00;;;6.50;99.90;;;;;;5077590;28;20279;-68
2021/09/30 06:17:13;;;;;;;5.00;3.70;;;6.50;99.90;;;;;;5082573;28;20236;-69
2021/09/30 06:19:41;;;;;;;8.50;4.00;;;6.60;99.90;;;;;;5082593;28;20577;-69
2021/09/30 06:22:07;;;;;;;4.18;3.72;;;6.60;99.90;;;;;;5082765;28;20188;-68
2021/09/30 06:24:35;;;;;;;6.03;4.13;;;6.70;99.90;;;;;;5083954;28;20224;-68
2021/09/30 06:27:02;;;;;;;5.63;4.07;;;6.80;99.90;;;;;;5083229;28;20199;-68
2021/09/30 06:29:29;;;;;;;6.25;3.75;;;6.90;99.90;;;;;;5080156;28;20196;-68
2021/09/30 06:31:55;;;;;;;5.82;4.72;;;7.00;99.90;;;;;;5077754;28;20196;-68
2021/09/30 06:34:22;;;;;;;5.00;4.03;;;7.00;99.90;;;;;;5077949;28;20199;-68
2021/09/30 06:36:49;;;;;;;4.72;3.05;;;7.00;99.90;;;;;;5076982;28;20189;-68
2021/09/30 06:39:15;;;;;;;5.03;3.35;;;7.00;99.90;;;;;;5077298;28;20203;-68
2021/09/30 06:41:41;;;;;;;4.10;3.78;;;7.10;99.90;;;;;;5077534;28;20196;-69
2021/09/30 06:44:10;;;;;;;10.55;3.92;;;7.20;99.90;;;;;;5080002;28;20224;-68
2021/09/30 06:46:37;;;;;;;6.30;4.18;;;7.40;99.90;;;;;;5077465;28;20195;-66
2021/09/30 06:49:03;;;;;;;5.60;3.25;;;7.50;99.90;;;;;;5076297;28;20192;-67
2021/09/30 06:51:32;;;;;;;5.32;3.47;;;7.50;99.90;;;;;;5074883;28;20219;-68
2021/09/30 06:53:58;;;;;;;5.47;3.00;;;7.70;99.90;;;;;;5075820;28;20719;-68
2021/09/30 06:56:26;;;;;;;8.30;3.10;;;7.80;99.90;;;;;;5075177;28;20192;-68
2021/09/30 06:58:54;;;;;;;2.60;2.40;;;7.90;99.90;;;;;;5075430;28;20223;-68
2021/09/30 07:01:22;;;;;;;2.58;2.38;;;8.00;99.90;;;;;;5075328;28;20203;-68
2021/09/30 07:03:49;;;;;;;3.17;2.33;;;8.20;99.90;;;;;;5075197;28;20244;-68
2021/09/30 07:06:15;;;;;;;6.95;2.42;;;8.20;99.90;;;;;;5074752;28;20302;-67
2021/09/30 07:08:43;;;;;;;2.83;2.08;;;8.30;99.90;;;;;;5073733;28;20192;-67
2021/09/30 07:11:09;;;;;;;6.45;2.78;;;8.40;99.90;;;;;;5074936;28;20204;-67
2021/09/30 07:13:37;;;;;;;3.60;1.77;;;8.50;99.90;;;;;;5074453;28;20190;-67
2021/09/30 07:16:04;;;;;;;14.70;3.50;;;8.70;99.90;;;;;;5074248;28;20188;-67
2021/09/30 07:18:30;;;;;;;9.68;2.05;;;8.90;99.90;;;;;;5074346;28;20281;-68
2021/09/30 07:21:00;;;;;;;5.30;2.03;;;9.00;99.90;;;;;;5074685;28;20678;-69
2021/09/30 07:23:29;;;;;;;3.45;2.08;;;8.90;99.90;;;;;;5074952;28;20200;-68
2021/09/30 07:25:55;;;;;;;6.18;2.72;;;9.20;99.90;;;;;;5074308;28;20693;-68
2021/09/30 07:28:22;;;;;;;7.07;2.30;;;9.40;99.90;;;;;;5074471;28;20200;-68
2021/09/30 07:30:51;;;;;;;3.80;2.10;;;9.60;99.90;;;;;;5074221;28;20207;-68
2021/09/30 07:33:20;;;;;;;3.75;1.75;;;9.70;99.90;;;;;;5075028;28;20609;-68
2021/09/30 07:35:47;;;;;;;2.88;2.42;;;9.80;99.90;;;;;;5074502;28;20207;-68
2021/09/30 07:38:14;;;;;;;6.93;1.80;;;9.90;99.90;;;;;;5074454;28;20196;-68
2021/09/30 07:40:40;;;;;;;3.25;1.80;;;10.00;99.90;;;;;;5075079;28;20195;-68
2021/09/30 07:43:07;;;;;;;5.70;2.45;;;10.10;99.90;;;;;;5074668;28;20234;-68
2021/09/30 07:45:33;;;;;;;6.50;1.92;;;10.30;99.90;;;;;;5073937;28;20590;-68
2021/09/30 07:47:59;;;;;;;2.38;2.17;;;10.50;99.90;;;;;;5075118;28;20625;-68
2021/09/30 07:50:26;;;;;;;3.28;2.38;;;10.50;99.90;;;;;;5075223;28;20195;-68
2021/09/30 07:52:52;;;;;;;4.75;2.08;;;10.60;99.90;;;;;;5074705;28;20662;-68
2021/09/30 07:55:19;;;;;;;5.28;2.50;;;10.90;99.90;;;;;;5074444;28;20192;-68
2021/09/30 07:57:45;;;;;;;5.20;2.20;;;11.00;99.90;;;;;;5074548;28;20218;-68
2021/09/30 08:00:12;;;;;;;5.60;2.53;;;10.90;99.90;;;;;;5074691;28;20207;-68
2021/09/30 08:02:38;;;;;;;3.25;2.10;;;10.90;99.90;;;;;;5073916;28;20286;-68
2021/09/30 08:05:06;;;;;;;2.50;2.28;;;11.20;99.90;;;;;;5074311;28;20644;-68
2021/09/30 08:07:33;;;;;;;10.30;2.35;;;11.40;99.90;;;;;;5073882;28;20203;-68
2021/09/30 08:10:00;;;;;;;2.38;1.95;;;11.60;99.90;;;;;;5074054;28;20195;-68
2021/09/30 08:12:26;;;;;;;9.82;2.53;;;11.50;99.90;;;;;;5073190;28;20206;-68
2021/09/30 08:14:53;;;;;;;3.50;1.77;;;11.80;99.90;;;;;;5074079;28;20192;-68
2021/09/30 08:17:19;;;;;;;3.58;2.05;;;11.60;99.90;;;;;;5073598;28;20242;-68
2021/09/30 08:19:46;;;;;;;5.47;2.30;;;11.70;99.90;;;;;;5074183;28;20556;-68
2021/09/30 08:22:12;;;;;;;4.35;1.80;;;11.70;99.90;;;;;;5074493;28;20204;-68
2021/09/30 08:24:38;;;;;;;4.07;1.73;;;11.50;99.90;;;;;;5072743;28;20226;-68
2021/09/30 08:27:05;;;;;;;5.07;1.70;;;11.70;99.90;;;;;;5073833;28;20188;-68
2021/09/30 08:29:32;;;;;;;2.55;1.92;;;11.80;99.90;;;;;;5072229;28;20196;-68
2021/09/30 08:31:58;;;;;;;3.92;2.03;;;12.00;99.90;;;;;;5073288;28;20211;-68
2021/09/30 08:34:24;;;;;;;3.00;2.10;;;12.00;99.90;;;;;;5073513;28;20199;-68
2021/09/30 08:36:51;;;;;;;5.40;1.65;;;12.10;99.90;;;;;;5072806;28;20202;-68
2021/09/30 08:39:17;;;;;;;3.17;1.75;;;12.20;99.90;;;;;;5073343;28;20200;-68
2021/09/30 08:41:43;;;;;;;3.67;2.15;;;12.20;99.90;;;;;;5073729;28;20606;-68
2021/09/30 08:44:10;;;;;;;3.03;1.53;;;12.30;99.90;;;;;;5073199;28;20299;-66
2021/09/30 08:46:36;;;;;;;3.40;1.30;;;12.70;99.90;;;;;;5073429;28;20959;-69
2021/09/30 08:49:04;;;;;;;3.70;1.67;;;12.70;99.90;;;;;;5073118;28;20598;-69
2021/09/30 08:51:31;;;;;;;7.00;2.10;;;12.50;99.90;;;;;;5073323;28;21175;-69
2021/09/30 08:53:57;;;;;;;4.80;2.13;;;12.50;99.90;;;;;;5073327;28;20277;-68
2021/09/30 08:56:24;;;;;;;3.15;1.25;;;12.50;99.90;;;;;;5072987;28;20203;-66
2021/09/30 08:58:51;;;;;;;3.67;1.65;;;12.60;99.90;;;;;;5073022;28;20603;-66
2021/09/30 09:01:18;;;;;;;6.87;2.13;;;12.50;99.90;;;;;;5072953;28;20204;-66
2021/09/30 09:03:47;;;;;;;4.65;1.35;;;12.80;99.90;;;;;;5072596;28;20642;-67
2021/09/30 09:06:30;;;;;;;3.85;1.50;;;12.80;99.90;;;;;;5073222;28;20224;-66
2021/09/30 09:09:20;;;;;;;1.80;1.60;;;12.70;99.90;;;;;;5073501;28;20203;-66
2021/09/30 09:11:48;;;;;;;3.53;1.90;;;12.90;99.90;;;;;;5071809;28;20219;-67
2021/09/30 09:14:33;;;;;;;3.53;1.63;;;12.90;99.90;;;;;;5073251;28;21140;-66
2021/09/30 09:17:06;;;;;;;4.93;1.30;;;13.00;99.90;;;;;;5072666;28;20634;-66
2021/09/30 09:19:40;;;;;;;4.40;1.40;;;12.80;99.90;;;;;;5073093;28;20198;-69
2021/09/30 09:22:17;;;;;;;4.13;2.30;;;13.10;99.90;;;;;;5063201;28;20204;-69
2021/09/30 09:25:06;;;;;;;2.25;1.55;;;13.10;99.90;;;;;;5068401;28;20637;-69
2021/09/30 09:27:47;;;;;;;3.43;1.27;;;13.20;99.90;;;;;;5072391;28;20196;-66
2021/09/30 09:30:40;;;;;;;1.55;1.42;;;13.30;99.90;;;;;;5071982;28;20614;-66
2021/09/30 09:33:11;;;;;;;3.57;1.10;;;13.40;99.90;;;;;;5072414;28;20210;-67
2021/09/30 09:36:25;;;;;;;5.30;1.77;;;13.40;99.90;;;;;;5072829;28;20644;-67
2021/09/30 09:38:52;;;;;;;3.65;1.42;;;13.40;99.90;;;;;;5071865;28;20642;-67
2021/09/30 09:41:29;;;;;;;5.13;1.60;;;13.50;99.90;;;;;;5072250;28;20192;-67
2021/09/30 09:43:58;;;;;;;3.47;1.50;;;13.50;99.90;;;;;;5058146;28;20587;-68
2021/09/30 09:46:39;;;;;;;1.67;1.27;;;13.50;99.90;;;;;;5058721;28;20662;-68
2021/09/30 09:49:19;;;;;;;2.80;1.70;;;13.60;99.90;;;;;;5072387;28;20629;-67
2021/09/30 09:51:48;;;;;;;2.70;1.40;;;13.70;99.90;;;;;;5075949;28;20662;-67
2021/09/30 09:54:19;;;;;;;2.53;1.43;;;13.70;99.90;;;;;;5075553;28;20637;-67
2021/09/30 09:56:47;;;;;;;6.90;1.63;;;13.50;99.90;;;;;;5075973;28;20594;-67
2021/09/30 09:59:30;;;;;;;4.93;1.43;;;13.40;99.90;;;;;;5075728;28;21144;-67
2021/09/30 10:02:00;;;;;;;15.67;1.73;;;13.50;99.90;;;;;;5076170;28;20593;-67
2021/09/30 10:04:27;;;;;;;2.93;1.23;;;13.80;99.90;;;;;;5076274;28;20618;-67
2021/09/30 10:06:54;;;;;;;3.50;0.97;;;13.80;99.90;;;;;;5075977;28;20664;-67
2021/09/30 10:09:22;;;;;;;2.20;1.30;;;13.80;99.90;;;;;;5075753;28;20633;-67
2021/09/30 10:11:48;;;;;;;5.73;1.30;;;13.80;99.90;;;;;;5075946;28;20606;-67
2021/09/30 10:14:15;;;;;;;4.00;1.13;;;13.80;99.90;;;;;;5075901;28;20617;-67
2021/09/30 10:16:47;;;;;;;4.03;1.30;;;13.90;99.90;;;;;;5075348;28;21202;-67
2021/09/30 10:19:13;;;;;;;8.63;1.37;;;14.00;99.90;;;;;;5075738;28;20611;-67
2021/09/30 10:21:40;;;;;;;4.90;1.40;;;14.30;99.90;;;;;;5076028;28;20604;-67
2021/09/30 10:24:12;;;;;;;2.17;1.20;;;14.40;99.90;;;;;;5075824;28;20590;-67
2021/09/30 10:26:53;;;;;;;2.40;0.97;;;14.40;99.90;;;;;;5075208;28;21044;-67
2021/09/30 10:29:47;;;;;;;3.63;1.17;;;14.70;99.90;;;;;;5075540;28;20625;-67
2021/09/30 10:32:19;;;;;;;3.37;1.37;;;14.60;99.90;;;;;;5074167;28;21230;-68
2021/09/30 10:34:48;;;;;;;3.97;1.57;;;14.50;99.90;;;;;;5076103;28;20559;-67
2021/09/30 10:37:15;;;;;;;3.40;1.40;;;14.80;90.80;;;;;;5077577;28;20625;-68
2021/09/30 10:39:42;;;;;;;6.43;1.30;;;15.00;48.30;;;;;;5078605;28;20705;-67
2021/09/30 10:42:43;;;;;;;2.80;1.40;;;15.00;34.70;;;;;;5075431;28;20630;-67
2021/09/30 10:45:12;;;;;;;3.83;1.27;;;14.90;22.90;;;;;;5075414;28;20629;-67
2021/09/30 10:47:42;;;;;;;3.40;1.00;;;14.80;20.40;;;;;;5074884;28;20677;-67
2021/09/30 10:50:09;;;;;;;1.77;1.03;;;15.20;71.70;;;;;;5075111;28;20586;-67
2021/09/30 10:52:50;;;;;;;3.57;1.90;;;15.60;22.00;;;;;;5075341;28;20590;-67
2021/09/30 10:55:16;;;;;;;5.10;1.20;;;16.30;7.90;;;;;;5077619;28;20978;-68
2021/09/30 10:57:50;;;;;;;4.18;1.20;;;16.40;1.00;;;;;;5075045;28;20734;-67
2021/09/30 11:00:17;;;;;;;1.97;1.30;;;16.40;1.00;;;;;;5074439;28;20182;-67
2021/09/30 11:03:11;;;;;;;3.17;1.73;;;16.20;9.60;;;;;;5075809;28;20618;-69
2021/09/30 11:05:42;;;;;;;1.40;1.30;;;16.20;1.00;;;;;;5077937;28;20614;-68
2021/09/30 11:08:29;;;;;;;2.40;1.40;;;16.30;1.00;;;;;;5076171;28;20621;-69
2021/09/30 11:11:05;;;;;;;1.67;1.00;;;16.00;1.00;;;;;;5076713;28;20618;-68
2021/09/30 11:13:38;;;;;;;3.60;1.30;;;16.10;1.00;;;;;;5076105;28;20610;-66
2021/09/30 11:16:17;;;;;;;1.10;0.87;;;16.40;1.00;;;;;;5078372;28;20614;-68
2021/09/30 11:18:52;;;;;;;1.27;0.90;;;16.80;1.00;;;;;;5075554;28;20645;-67
2021/09/30 11:21:30;;;;;;;2.10;1.00;;;17.50;84.70;;;;;;5075184;28;20613;-67
2021/09/30 11:24:05;;;;;;;2.13;1.20;;;17.60;99.90;;;;;;5076262;28;20607;-67
2021/09/30 11:26:35;;;;;;;4.10;1.20;;;17.80;99.90;;;;;;5058058;28;21148;-67
2021/09/30 11:29:19;;;;;;;1.80;1.17;;;18.30;99.90;;;;;;5074791;28;20617;-67
2021/09/30 11:31:47;;;;;;;2.43;1.10;;;17.80;94.20;;;;;;5075428;28;20700;-67
2021/09/30 11:34:20;;;;;;;2.13;1.23;;;18.20;99.90;;;;;;5077277;28;21121;-67
2021/09/30 11:36:47;;;;;;;4.40;1.40;;;18.80;99.90;;;;;;5076188;28;20618;-67
2021/09/30 11:39:14;;;;;;;4.07;1.50;;;19.00;99.90;;;;;;5073928;28;21004;-67
2021/09/30 11:41:45;;;;;;;2.57;2.00;;;17.80;99.90;;;;;;5077366;28;20620;-68
2021/09/30 11:44:16;;;;;;;2.00;1.20;;;17.60;99.90;;;;;;5077321;28;21163;-67
2021/09/30 11:46:43;;;;;;;3.97;1.63;;;17.40;99.90;;;;;;5075805;28;20633;-67
2021/09/30 11:49:11;;;;;;;4.27;1.23;;;17.40;99.90;;;;;;5074824;28;21155;-67
2021/09/30 11:51:43;;;;;;;1.93;1.20;;;17.10;99.90;;;;;;5077327;28;20609;-67
2021/09/30 11:54:18;;;;;;;2.13;1.17;;;16.60;83.00;;;;;;5078012;28;20551;-68
2021/09/30 11:56:50;;;;;;;14.10;2.00;;;16.40;20.30;;;;;;5075266;28;20677;-67
2021/09/30 11:59:19;;;;;;;6.37;1.53;;;16.50;95.10;;;;;;5075527;28;20713;-67
2021/09/30 12:01:47;;;;;;;2.97;1.50;;;17.20;99.90;;;;;;5075489;28;20626;-68
2021/09/30 12:04:49;;;;;;;3.80;1.43;;;18.60;99.90;;;;;;5076447;28;20590;-68
2021/09/30 12:07:23;;;;;;;5.67;1.77;;;18.80;99.90;;;;;;5075642;28;20703;-68
2021/09/30 12:09:52;;;;;;;3.03;1.60;;;18.90;99.90;;;;;;5075893;28;20613;-67
2021/09/30 12:12:25;;;;;;;5.87;1.83;;;19.00;99.90;;;;;;5074549;28;20648;-67
2021/09/30 12:14:53;;;;;;;2.40;1.10;;;18.70;99.90;;;;;;5076979;28;20601;-68
2021/09/30 12:17:20;;;;;;;2.80;1.50;;;19.30;99.90;;;;;;5074753;28;20642;-67
2021/09/30 12:19:49;;;;;;;2.80;1.17;;;19.30;99.90;;;;;;5076232;28;20628;-68
2021/09/30 12:22:19;;;;;;;2.33;1.20;;;18.60;99.90;;;;;;5077143;28;20621;-68
2021/09/30 12:24:55;;;;;;;4.63;1.40;;;19.40;99.90;;;;;;5077472;28;21129;-67
2021/09/30 12:27:24;;;;;;;1.57;1.03;;;20.70;99.90;;;;;;5075086;28;21167;-67
2021/09/30 12:29:53;;;;;;;5.60;1.40;;;20.00;99.90;;;;;;5073299;28;20595;-67
2021/09/30 12:32:27;;;;;;;2.73;1.03;;;19.70;99.90;;;;;;5073957;28;20629;-68
2021/09/30 12:34:59;;;;;;;1.50;1.10;;;19.00;99.90;;;;;;5074002;28;20680;-67
2021/09/30 12:37:31;;;;;;;2.30;0.80;;;19.30;99.90;;;;;;5076899;28;21179;-68
2021/09/30 12:39:59;;;;;;;2.93;1.30;;;20.00;99.90;;;;;;5078072;28;20610;-68
2021/09/30 12:42:28;;;;;;;1.87;1.00;;;20.80;99.90;;;;;;5078252;28;20625;-68
2021/09/30 12:44:54;;;;;;;1.80;1.20;;;20.00;99.90;;;;;;5081492;28;21108;-68
2021/09/30 12:47:38;;;;;;;4.40;1.33;;;20.00;99.90;;;;;;5078667;28;20618;-68
2021/09/30 12:50:16;;;;;;;4.10;1.23;;;20.40;99.90;;;;;;5075031;28;21140;-68
2021/09/30 12:52:44;;;;;;;2.30;1.00;;;20.50;99.90;;;;;;5076341;28;20618;-68
2021/09/30 12:55:13;;;;;;;3.10;1.63;;;19.50;99.90;;;;;;5074969;28;20598;-67
2021/09/30 12:57:39;;;;;;;3.40;1.00;;;19.50;99.90;;;;;;5075113;28;20624;-67
2021/09/30 13:00:17;;;;;;;2.40;1.60;;;18.80;99.90;;;;;;5075855;28;20684;-67
2021/09/30 13:02:48;;;;;;;2.73;0.97;;;18.90;99.90;;;;;;5074838;28;20626;-68
2021/09/30 13:05:15;;;;;;;2.50;1.60;;;18.70;99.90;;;;;;5076335;28;20653;-68
2021/09/30 13:07:47;;;;;;;3.60;1.70;;;19.70;99.90;;;;;;5075024;28;20614;-68
2021/09/30 13:10:16;;;;;;;4.77;1.37;;;20.20;99.90;;;;;;5074714;28;20606;-68
2021/09/30 13:13:03;;;;;;;3.60;1.30;;;20.70;99.90;;;;;;5073997;28;20606;-68
2021/09/30 13:15:44;;;;;;;4.30;1.40;;;21.30;99.90;;;;;;5073614;28;20581;-68
2021/09/30 13:18:13;;;;;;;3.00;1.33;;;22.20;99.90;;;;;;5074262;28;21206;-68
2021/09/30 13:20:43;;;;;;;2.30;1.80;;;22.40;99.90;;;;;;5079688;28;20688;-68
2021/09/30 13:23:10;;;;;;;3.60;1.50;;;20.90;99.90;;;;;;5078844;28;20617;-69
2021/09/30 13:25:38;;;;;;;9.07;1.90;;;21.90;99.90;;;;;;5082256;28;21010;-68
2021/09/30 13:28:07;;;;;;;5.03;1.60;;;22.80;99.90;;;;;;5080333;28;20956;-68
2021/09/30 13:30:39;;;;;;;3.00;1.47;;;22.10;99.90;;;;;;5080373;28;20601;-68
2021/09/30 13:33:06;;;;;;;3.97;1.27;;;20.70;99.90;;;;;;5076870;28;20621;-68
2021/09/30 13:35:34;;;;;;;1.30;0.93;;;20.00;99.90;;;;;;5076827;28;20625;-68
2021/09/30 13:38:01;;;;;;;3.10;1.27;;;20.40;99.90;;;;;;5078519;28;21002;-68
2021/09/30 13:40:27;;;;;;;2.40;1.43;;;20.60;99.90;;;;;;5076732;28;20603;-68
2021/09/30 13:42:54;;;;;;;3.63;1.20;;;19.90;99.90;;;;;;5078516;28;20602;-68
2021/09/30 13:45:22;;;;;;;1.30;0.93;;;20.00;99.90;;;;;;5079717;28;20594;-68
2021/09/30 13:47:49;;;;;;;3.23;1.17;;;20.00;99.90;;;;;;5080973;28;20638;-68
2021/09/30 13:50:19;;;;;;;2.43;1.20;;;20.30;99.90;;;;;;5077665;28;20590;-68
2021/09/30 13:52:46;;;;;;;1.73;1.13;;;20.00;99.90;;;;;;5077002;28;20605;-68
2021/09/30 13:55:16;;;;;;;3.67;1.30;;;20.50;99.90;;;;;;5076891;28;20567;-68
2021/09/30 13:57:45;;;;;;;2.10;1.20;;;21.70;99.90;;;;;;5077277;28;20618;-68
2021/09/30 14:00:14;;;;;;;1.83;1.70;;;22.20;99.90;;;;;;5076703;28;21113;-68
2021/09/30 14:02:46;;;;;;;2.23;2.03;;;22.40;99.90;;;;;;5075931;28;20571;-68
2021/09/30 14:05:14;;;;;;;3.20;2.17;;;22.30;99.90;;;;;;5075512;28;20646;-68
2021/09/30 14:07:41;;;;;;;4.17;1.53;;;21.40;99.90;;;;;;5075900;28;21145;-68
2021/09/30 14:10:11;;;;;;;6.70;4.17;;;20.80;99.90;;;;;;5074983;28;20618;-68
2021/09/30 14:12:37;;;;;;;4.80;2.30;;;22.00;99.90;;;;;;5075789;28;20616;-68
2021/09/30 14:15:06;;;;;;;2.90;1.73;;;21.40;99.90;;;;;;5075747;28;20606;-68
2021/09/30 14:17:33;;;;;;;1.43;1.30;;;20.70;99.90;;;;;;5075705;28;20646;-68
2021/09/30 14:19:59;;;;;;;3.53;1.80;;;20.40;99.90;;;;;;5075898;28;20618;-67
2021/09/30 14:22:26;;;;;;;15.00;3.30;;;20.80;99.90;;;;;;5075565;28;20594;-68
2021/09/30 14:24:53;;;;;;;2.93;1.20;;;21.30;99.90;;;;;;5075737;28;20714;-68
2021/09/30 14:27:21;;;;;;;3.77;1.50;;;21.50;99.90;;;;;;5076624;28;20654;-67
2021/09/30 14:29:48;;;;;;;7.00;3.07;;;22.40;99.90;;;;;;5078178;28;20609;-67
2021/09/30 14:32:14;;;;;;;5.60;2.63;;;22.40;99.90;;;;;;5076410;28;20594;-67
2021/09/30 14:34:41;;;;;;;3.17;1.40;;;21.20;99.90;;;;;;5074934;28;20618;-67
2021/09/30 14:37:08;;;;;;;10.00;1.50;;;21.50;99.90;;;;;;5075045;28;20601;-67
2021/09/30 14:39:34;;;;;;;2.90;1.50;;;21.60;99.90;;;;;;5074247;28;20725;-67
2021/09/30 14:42:01;;;;;;;5.20;2.97;;;20.80;99.90;;;;;;5074856;28;20606;-67
2021/09/30 14:44:27;;;;;;;1.87;1.03;;;20.50;99.90;;;;;;5075457;28;20698;-67
2021/09/30 14:46:54;;;;;;;2.70;1.60;;;20.30;99.90;;;;;;5075273;28;20652;-67
2021/09/30 14:49:21;;;;;;;1.30;1.10;;;20.70;99.90;;;;;;5075766;28;20622;-67
2021/09/30 14:51:48;;;;;;;1.40;1.30;;;20.90;99.90;;;;;;5075809;28;21125;-67
2021/09/30 14:54:14;;;;;;;1.90;1.27;;;20.80;99.90;;;;;;5075536;28;20610;-67
2021/09/30 14:56:40;;;;;;;3.80;1.60;;;21.20;99.90;;;;;;5075644;28;21184;-68
2021/09/30 14:59:06;;;;;;;2.33;1.50;;;22.10;99.90;;;;;;5080473;28;20590;-67
2021/09/30 15:01:33;;;;;;;1.63;1.27;;;22.80;99.90;;;;;;5077215;28;20629;-68
2021/09/30 15:03:59;;;;;;;2.70;1.30;;;22.70;99.90;;;;;;5076971;28;20618;-68
2021/09/30 15:06:33;;;;;;;2.77;1.30;;;21.80;99.90;;;;;;5075523;28;21154;-68
2021/09/30 15:09:01;;;;;;;2.60;1.57;;;21.50;99.90;;;;;;5075009;28;20618;-68
2021/09/30 15:11:30;;;;;;;5.23;1.00;;;21.20;99.90;;;;;;5076284;28;20624;-68
2021/09/30 15:13:57;;;;;;;4.73;1.30;;;20.50;99.90;;;;;;5075728;28;20606;-68
2021/09/30 15:16:26;;;;;;;4.07;1.60;;;20.00;99.90;;;;;;5075626;28;20614;-68
2021/09/30 15:18:54;;;;;;;3.10;1.70;;;19.00;99.90;;;;;;5078779;28;20650;-68
2021/09/30 15:21:21;;;;;;;3.80;1.40;;;18.60;99.90;;;;;;5075908;28;20637;-68
2021/09/30 15:23:56;;;;;;;2.60;1.20;;;18.60;99.90;;;;;;5078994;28;20634;-68
2021/09/30 15:26:25;;;;;;;4.00;1.60;;;18.60;99.90;;;;;;5076097;28;20602;-68
2021/09/30 15:28:53;;;;;;;2.23;1.00;;;19.00;99.90;;;;;;5074841;28;20693;-68
2021/09/30 15:31:22;;;;;;;3.37;1.10;;;19.10;99.90;;;;;;5073508;28;20622;-67
2021/09/30 15:33:50;;;;;;;4.20;1.27;;;18.60;99.90;;;;;;5074487;28;20969;-67
2021/09/30 15:36:17;;;;;;;2.73;1.50;;;18.40;99.90;;;;;;5072721;28;21000;-68
2021/09/30 15:38:44;;;;;;;1.67;1.00;;;17.90;99.90;;;;;;5074475;28;20622;-68
2021/09/30 15:41:13;;;;;;;0.90;0.90;;;17.90;99.90;;;;;;5076476;28;20676;-67
2021/09/30 15:43:39;;;;;;;2.27;1.20;;;17.80;99.90;;;;;;5074169;28;20603;-66
2021/09/30 15:46:06;;;;;;;1.30;1.00;;;18.20;99.90;;;;;;5074202;28;20654;-66
2021/09/30 15:48:33;;;;;;;1.50;1.10;;;18.30;99.90;;;;;;5072686;28;20645;-66